Time;durP1;ratioP1;P1;durP2;ratioP2;P2;SDS_P1;SDS_P2;PMS_P1;PMS_P2;Temp;Humidity;BMP_temperature;BMP_pressure;BME280_temperature;BME280_humidity;BME280_pressure;Samples;Min_cycle;Max_cycle;Signal;HPM_P1;HPM_P2
2023/12/19 00:01:04;;;;;;;0.75;0.75;;;;;;;;;;5033098;28;20044;-78
2023/12/19 00:03:32;;;;;;;0.77;0.77;;;;;;;;;;5043380;28;20111;-77
2023/12/19 00:06:00;;;;;;;0.10;0.10;;;;;;;;;;5048193;28;20414;-77
2023/12/19 00:08:27;;;;;;;1.58;1.40;;;;;;;;;;5040204;28;20041;-77
2023/12/19 00:10:54;;;;;;;1.38;1.27;;;;;;;;;;5045298;28;20102;-78
2023/12/19 00:13:22;;;;;;;2.00;1.33;;;;;;;;;;5040682;28;20136;-78
2023/12/19 00:15:49;;;;;;;4.30;1.60;;;;;;;;;;5045329;28;20413;-77
2023/12/19 00:18:17;;;;;;;0.28;0.28;;;;;;;;;;5025915;28;20052;-77
2023/12/19 00:20:45;;;;;;;3.60;1.00;;;;;;;;;;5041476;28;20132;-78
2023/12/19 00:23:12;;;;;;;18.25;3.03;;;;;;;;;;5038254;28;20047;-77
2023/12/19 00:25:40;;;;;;;0.85;0.85;;;;;;;;;;5041666;28;20115;-75
2023/12/19 00:28:07;;;;;;;0.95;0.63;;;;;;;;;;5044907;28;20041;-78
2023/12/19 00:30:35;;;;;;;0.80;0.80;;;;;;;;;;5042228;28;20107;-78
2023/12/19 00:33:02;;;;;;;0.30;0.30;;;;;;;;;;5042795;28;20040;-76
2023/12/19 00:35:31;;;;;;;0.95;0.93;;;;;;;;;;5045653;28;20121;-78
2023/12/19 00:37:59;;;;;;;0.90;0.90;;;;;;;;;;5038701;28;20049;-76
2023/12/19 00:40:26;;;;;;;0.35;0.35;;;;;;;;;;5045843;28;20064;-76
2023/12/19 00:42:54;;;;;;;1.13;0.75;;;;;;;;;;5046001;28;20477;-78
2023/12/19 00:45:21;;;;;;;0.52;0.52;;;;;;;;;;5039549;28;20048;-78
2023/12/19 00:47:49;;;;;;;0.70;0.70;;;;;;;;;;5041015;28;20242;-78
2023/12/19 00:50:18;;;;;;;1.13;1.05;;;;;;;;;;5048572;28;20519;-76
2023/12/19 00:52:45;;;;;;;1.65;1.55;;;;;;;;;;5041295;28;20072;-78
2023/12/19 00:55:13;;;;;;;0.55;0.40;;;;;;;;;;5045629;28;20474;-75
2023/12/19 00:57:40;;;;;;;0.28;0.28;;;;;;;;;;5046155;28;20049;-78
2023/12/19 01:00:08;;;;;;;8.52;3.05;;;;;;;;;;5047570;28;20040;-78
2023/12/19 01:02:36;;;;;;;1.17;1.10;;;;;;;;;;5046273;28;20115;-76
2023/12/19 01:05:03;;;;;;;0.10;0.10;;;;;;;;;;5049819;28;20048;-78
2023/12/19 01:07:31;;;;;;;0.28;0.28;;;;;;;;;;5049423;28;20076;-78
2023/12/19 01:09:58;;;;;;;0.10;0.10;;;;;;;;;;5047418;28;20439;-78
2023/12/19 01:12:26;;;;;;;0.28;0.28;;;;;;;;;;5048998;28;20502;-77
2023/12/19 01:14:53;;;;;;;0.00;0.00;;;;;;;;;;5051324;28;20048;-78
2023/12/19 01:17:21;;;;;;;0.10;0.10;;;;;;;;;;5033159;28;20052;-78
2023/12/19 01:19:48;;;;;;;0.20;0.20;;;;;;;;;;5048094;28;20045;-78
2023/12/19 01:22:16;;;;;;;1.08;0.98;;;;;;;;;;5045573;28;20053;-79
2023/12/19 01:24:43;;;;;;;1.85;1.27;;;;;;;;;;5050759;28;20529;-77
2023/12/19 01:27:11;;;;;;;1.30;1.30;;;;;;;;;;5044550;28;20045;-77
2023/12/19 01:29:41;;;;;;;0.57;0.57;;;;;;;;;;5048767;28;20048;-77
2023/12/19 01:32:08;;;;;;;0.57;0.57;;;;;;;;;;5045366;28;20533;-78
2023/12/19 01:34:35;;;;;;;0.20;0.20;;;;;;;;;;5048308;28;20041;-78
2023/12/19 01:37:07;;;;;;;1.65;0.95;;;;;;;;;;5046583;28;20415;-79
2023/12/19 01:39:34;;;;;;;1.27;1.23;;;;;;;;;;5045664;28;20052;-79
2023/12/19 01:42:02;;;;;;;0.70;0.70;;;;;;;;;;5038113;28;20381;-78
2023/12/19 01:44:30;;;;;;;0.73;0.73;;;;;;;;;;5044623;28;20041;-78
2023/12/19 01:46:57;;;;;;;1.02;0.93;;;;;;;;;;5040546;28;20083;-77
2023/12/19 01:49:25;;;;;;;0.28;0.28;;;;;;;;;;5044378;28;20040;-76
2023/12/19 01:51:52;;;;;;;16.20;2.30;;;;;;;;;;5040135;28;20045;-79
2023/12/19 01:54:21;;;;;;;0.30;0.30;;;;;;;;;;5044749;28;20048;-78
2023/12/19 01:56:48;;;;;;;1.45;1.35;;;;;;;;;;5035283;28;20138;-79
2023/12/19 01:59:16;;;;;;;1.40;1.35;;;;;;;;;;5043549;28;20392;-78
2023/12/19 02:01:44;;;;;;;0.20;0.20;;;;;;;;;;5035523;28;20572;-76
2023/12/19 02:04:12;;;;;;;7.05;4.20;;;;;;;;;;5045974;28;20403;-77
2023/12/19 02:06:40;;;;;;;1.13;1.02;;;;;;;;;;5039720;28;20045;-78
2023/12/19 02:09:08;;;;;;;1.10;1.05;;;;;;;;;;5043058;28;20515;-77
2023/12/19 02:11:35;;;;;;;0.57;0.57;;;;;;;;;;5042231;28;20049;-79
2023/12/19 02:14:03;;;;;;;0.32;0.32;;;;;;;;;;5044136;28;20044;-78
2023/12/19 02:16:30;;;;;;;0.40;0.40;;;;;;;;;;5039338;28;20062;-77
2023/12/19 02:19:04;;;;;;;0.45;0.45;;;;;;;;;;5023948;28;20052;-79
2023/12/19 02:21:32;;;;;;;6.13;1.52;;;;;;;;;;5040920;28;20128;-78
2023/12/19 02:24:00;;;;;;;0.10;0.10;;;;;;;;;;5044803;28;20510;-78
2023/12/19 02:26:28;;;;;;;0.80;0.80;;;;;;;;;;5039573;28;20059;-79
2023/12/19 02:28:56;;;;;;;0.40;0.40;;;;;;;;;;5041870;28;20045;-76
2023/12/19 02:31:24;;;;;;;1.92;0.98;;;;;;;;;;5044799;28;20411;-79
2023/12/19 02:33:51;;;;;;;18.88;3.50;;;;;;;;;;5030021;28;20122;-77
2023/12/19 02:36:19;;;;;;;10.60;1.67;;;;;;;;;;5043466;28;20550;-78
2023/12/19 02:38:46;;;;;;;0.60;0.60;;;;;;;;;;5046025;28;20279;-79
2023/12/19 02:41:14;;;;;;;0.70;0.70;;;;;;;;;;5040185;28;20053;-77
2023/12/19 02:43:41;;;;;;;9.48;1.58;;;;;;;;;;5042537;28;20055;-77
2023/12/19 02:46:22;;;;;;;0.40;0.40;;;;;;;;;;5034532;28;20041;-77
2023/12/19 02:48:50;;;;;;;0.00;0.00;;;;;;;;;;5019974;28;20075;-79
2023/12/19 02:51:20;;;;;;;0.10;0.10;;;;;;;;;;5028986;28;20144;-77
2023/12/19 02:53:48;;;;;;;0.50;0.50;;;;;;;;;;5041814;28;20119;-77
2023/12/19 02:56:15;;;;;;;17.85;2.28;;;;;;;;;;5040099;28;20666;-79
2023/12/19 02:58:43;;;;;;;0.63;0.63;;;;;;;;;;5041290;28;20321;-76
2023/12/19 03:01:10;;;;;;;0.73;0.47;;;;;;;;;;5036552;28;20045;-77
2023/12/19 03:03:42;;;;;;;0.10;0.10;;;;;;;;;;5044894;28;20518;-78
2023/12/19 03:06:10;;;;;;;0.63;0.52;;;;;;;;;;5039068;28;20076;-78
2023/12/19 03:08:37;;;;;;;2.15;1.35;;;;;;;;;;5044653;28;20386;-76
2023/12/19 03:11:05;;;;;;;0.38;0.38;;;;;;;;;;5039564;28;20052;-78
2023/12/19 03:13:32;;;;;;;0.80;0.75;;;;;;;;;;5045326;28;20052;-78
2023/12/19 03:16:00;;;;;;;0.60;0.60;;;;;;;;;;5044047;28;20042;-78
2023/12/19 03:18:27;;;;;;;2.00;1.02;;;;;;;;;;5043792;28;20048;-79
2023/12/19 03:20:56;;;;;;;0.52;0.52;;;;;;;;;;5045552;28;20481;-77
2023/12/19 03:23:24;;;;;;;2.45;1.08;;;;;;;;;;5046277;28;20403;-77
2023/12/19 03:25:51;;;;;;;62.20;3.22;;;;;;;;;;5044778;28;20063;-78
2023/12/19 03:28:19;;;;;;;0.50;0.50;;;;;;;;;;5042381;28;20077;-76
2023/12/19 03:30:47;;;;;;;0.80;0.77;;;;;;;;;;5044800;28;20052;-76
2023/12/19 03:33:14;;;;;;;14.50;1.88;;;;;;;;;;5035299;28;20137;-77
2023/12/19 03:35:42;;;;;;;0.22;0.22;;;;;;;;;;5029234;28;20119;-78
2023/12/19 03:38:11;;;;;;;28.17;2.67;;;;;;;;;;5043552;28;20045;-76
2023/12/19 03:40:38;;;;;;;0.55;0.55;;;;;;;;;;5044307;28;20755;-77
2023/12/19 03:43:06;;;;;;;1.35;0.40;;;;;;;;;;5042989;28;20041;-78
2023/12/19 03:45:34;;;;;;;0.25;0.25;;;;;;;;;;5027967;28;20051;-79
2023/12/19 03:48:03;;;;;;;0.65;0.55;;;;;;;;;;5041806;28;20046;-79
2023/12/19 03:50:31;;;;;;;3.03;1.48;;;;;;;;;;5023382;28;20045;-78
2023/12/19 03:52:58;;;;;;;0.82;0.82;;;;;;;;;;5044270;28;20052;-76
2023/12/19 03:55:25;;;;;;;0.35;0.35;;;;;;;;;;5023707;28;20506;-78
2023/12/19 03:57:53;;;;;;;0.40;0.40;;;;;;;;;;5044748;28;20036;-78
2023/12/19 04:00:20;;;;;;;0.10;0.10;;;;;;;;;;5043610;28;20185;-79
2023/12/19 04:02:48;;;;;;;0.10;0.10;;;;;;;;;;5042447;28;20040;-79
2023/12/19 04:05:15;;;;;;;0.10;0.10;;;;;;;;;;5038955;28;20072;-77
2023/12/19 04:07:43;;;;;;;0.17;0.17;;;;;;;;;;5045057;28;20713;-77
2023/12/19 04:10:10;;;;;;;0.10;0.10;;;;;;;;;;5045012;28;20052;-79
2023/12/19 04:12:38;;;;;;;0.20;0.20;;;;;;;;;;5045042;28;20122;-77
2023/12/19 04:15:05;;;;;;;0.30;0.30;;;;;;;;;;5045867;28;20033;-79
2023/12/19 04:17:33;;;;;;;0.10;0.10;;;;;;;;;;5044795;28;20045;-78
2023/12/19 04:20:01;;;;;;;1.02;1.02;;;;;;;;;;5042290;28;20056;-78
2023/12/19 04:22:28;;;;;;;1.27;1.17;;;;;;;;;;5046924;28;20049;-78
2023/12/19 04:24:56;;;;;;;0.63;0.40;;;;;;;;;;5043762;28;20050;-76
2023/12/19 04:27:23;;;;;;;1.90;1.33;;;;;;;;;;5041851;28;20515;-78
2023/12/19 04:29:54;;;;;;;0.40;0.40;;;;;;;;;;5044473;28;20067;-78
2023/12/19 04:32:22;;;;;;;0.63;0.63;;;;;;;;;;5041942;28;20057;-78
2023/12/19 04:34:50;;;;;;;0.43;0.43;;;;;;;;;;5041386;28;20049;-78
2023/12/19 04:37:18;;;;;;;0.75;0.75;;;;;;;;;;5014216;28;20045;-78
2023/12/19 04:39:45;;;;;;;1.50;0.65;;;;;;;;;;5042217;28;20056;-77
2023/12/19 04:42:17;;;;;;;0.20;0.20;;;;;;;;;;5042737;28;20515;-78
2023/12/19 04:44:44;;;;;;;;;;;;;;;;;;5043572;28;20053;-78
2023/12/19 04:47:12;;;;;;;2.10;0.75;;;;;;;;;;5044631;28;19921;-77
2023/12/19 04:49:40;;;;;;;0.25;0.25;;;;;;;;;;5041513;28;20053;-77
2023/12/19 04:52:07;;;;;;;0.10;0.10;;;;;;;;;;5044021;28;20045;-78
2023/12/19 04:54:35;;;;;;;0.30;0.30;;;;;;;;;;5044995;28;20048;-78
2023/12/19 04:57:03;;;;;;;2.28;1.27;;;;;;;;;;5044969;28;20049;-78
2023/12/19 04:59:32;;;;;;;0.32;0.32;;;;;;;;;;5043815;28;20067;-77
2023/12/19 05:01:59;;;;;;;1.67;1.30;;;;;;;;;;5019103;28;20095;-78
2023/12/19 05:07:23;;;;;;;0.70;0.70;;;;;;;;;;5038693;28;20089;-74
2023/12/19 05:09:50;;;;;;;0.45;0.45;;;;;;;;;;5041676;28;20053;-73
2023/12/19 05:12:19;;;;;;;2.08;0.70;;;;;;;;;;5040658;28;20055;-71
2023/12/19 05:14:46;;;;;;;0.95;0.95;;;;;;;;;;5045619;28;20053;-71
2023/12/19 05:17:14;;;;;;;8.95;1.85;;;;;;;;;;5045172;28;20073;-71
2023/12/19 05:19:41;;;;;;;0.90;0.50;;;;;;;;;;5046032;28;20045;-71
2023/12/19 05:22:19;;;;;;;0.32;0.32;;;;;;;;;;5046046;28;20048;-71
2023/12/19 05:24:46;;;;;;;0.77;0.77;;;;;;;;;;5046011;28;20494;-71
2023/12/19 05:27:14;;;;;;;0.25;0.25;;;;;;;;;;5045936;28;20055;-71
2023/12/19 05:29:41;;;;;;;0.95;0.93;;;;;;;;;;5046183;28;20045;-71
2023/12/19 05:32:10;;;;;;;3.17;2.97;;;;;;;;;;5047238;28;20056;-71
2023/12/19 05:34:37;;;;;;;0.63;0.63;;;;;;;;;;5046871;28;20502;-71
2023/12/19 05:37:05;;;;;;;1.00;1.00;;;;;;;;;;5049107;28;20041;-71
2023/12/19 05:39:32;;;;;;;1.60;1.52;;;;;;;;;;5049728;28;20538;-71
2023/12/19 05:42:00;;;;;;;2.85;1.20;;;;;;;;;;5048957;28;20103;-71
2023/12/19 05:44:27;;;;;;;1.30;1.23;;;;;;;;;;5048017;28;20060;-71
2023/12/19 05:46:56;;;;;;;6.82;2.70;;;;;;;;;;5049208;28;20053;-71
2023/12/19 05:49:23;;;;;;;0.70;0.70;;;;;;;;;;5048973;28;20057;-71
2023/12/19 05:51:51;;;;;;;0.43;0.43;;;;;;;;;;5049080;28;20053;-73
2023/12/19 05:54:18;;;;;;;0.68;0.68;;;;;;;;;;5048745;28;20119;-71
2023/12/19 05:56:47;;;;;;;0.95;0.93;;;;;;;;;;5049414;28;20510;-71
2023/12/19 05:59:15;;;;;;;5.88;1.58;;;;;;;;;;5049319;28;20045;-72
2023/12/19 06:01:43;;;;;;;0.32;0.32;;;;;;;;;;5027383;28;20048;-73
2023/12/19 06:04:11;;;;;;;18.52;3.08;;;;;;;;;;5040639;28;20106;-74
2023/12/19 06:06:43;;;;;;;5.93;1.40;;;;;;;;;;5043983;28;20052;-75
2023/12/19 06:09:12;;;;;;;0.65;0.65;;;;;;;;;;5030107;28;20106;-75
2023/12/19 06:11:40;;;;;;;0.45;0.45;;;;;;;;;;5039121;28;20049;-75
2023/12/19 06:14:08;;;;;;;0.28;0.28;;;;;;;;;;5037853;28;20064;-74
2023/12/19 06:16:35;;;;;;;1.35;0.55;;;;;;;;;;5031494;28;20048;-74
2023/12/19 06:19:05;;;;;;;0.75;0.75;;;;;;;;;;5044430;28;20325;-74
2023/12/19 06:21:33;;;;;;;0.68;0.68;;;;;;;;;;5046941;28;20080;-74
2023/12/19 06:24:01;;;;;;;1.17;1.08;;;;;;;;;;5044633;28;20069;-74
2023/12/19 06:26:28;;;;;;;10.77;0.80;;;;;;;;;;5045684;28;20079;-74
2023/12/19 06:28:56;;;;;;;1.25;1.25;;;;;;;;;;5046907;28;20461;-74
2023/12/19 06:31:23;;;;;;;0.93;0.93;;;;;;;;;;5046597;28;20049;-75
2023/12/19 06:33:51;;;;;;;1.02;0.88;;;;;;;;;;5045612;28;20487;-75
2023/12/19 06:36:28;;;;;;;1.30;1.20;;;;;;;;;;5041107;28;20045;-74
2023/12/19 06:38:56;;;;;;;1.40;0.75;;;;;;;;;;5019668;28;20040;-73
2023/12/19 06:41:23;;;;;;;1.40;1.30;;;;;;;;;;5040128;28;20061;-74
2023/12/19 06:43:51;;;;;;;1.17;1.17;;;;;;;;;;5040528;28;20053;-74
2023/12/19 06:46:19;;;;;;;6.10;2.05;;;;;;;;;;5040792;28;20056;-74
2023/12/19 06:48:46;;;;;;;4.97;1.92;;;;;;;;;;5039933;28;20313;-74
2023/12/19 06:51:27;;;;;;;0.80;0.80;;;;;;;;;;5041940;28;20045;-74
2023/12/19 06:53:55;;;;;;;1.15;1.15;;;;;;;;;;5040658;28;20052;-75
2023/12/19 06:56:27;;;;;;;0.55;0.55;;;;;;;;;;5046421;28;20049;-74
2023/12/19 06:58:55;;;;;;;1.23;0.75;;;;;;;;;;5018891;28;20043;-75
2023/12/19 07:01:25;;;;;;;0.63;0.63;;;;;;;;;;5011480;28;20124;-74
2023/12/19 07:03:53;;;;;;;4.38;1.20;;;;;;;;;;5038812;28;20052;-74
2023/12/19 07:06:21;;;;;;;2.15;1.25;;;;;;;;;;5040736;28;20045;-74
2023/12/19 07:08:48;;;;;;;38.25;3.50;;;;;;;;;;5043580;28;20081;-75
2023/12/19 07:11:17;;;;;;;1.50;1.40;;;;;;;;;;5045920;28;20588;-75
2023/12/19 07:13:44;;;;;;;0.80;0.65;;;;;;;;;;5044235;28;20063;-74
2023/12/19 07:16:17;;;;;;;0.20;0.20;;;;;;;;;;5040807;28;20041;-74
2023/12/19 07:18:45;;;;;;;0.20;0.20;;;;;;;;;;5042296;28;20045;-75
2023/12/19 07:21:23;;;;;;;0.38;0.38;;;;;;;;;;5042273;28;20041;-74
2023/12/19 07:23:52;;;;;;;1.17;1.13;;;;;;;;;;5040797;28;20532;-74
2023/12/19 07:26:29;;;;;;;15.10;2.15;;;;;;;;;;5034343;28;20071;-74
2023/12/19 07:28:58;;;;;;;1.23;0.95;;;;;;;;;;5041532;28;20048;-75
2023/12/19 07:31:31;;;;;;;1.98;1.88;;;;;;;;;;5040661;28;20045;-71
2023/12/19 07:33:59;;;;;;;1.17;1.08;;;;;;;;;;5030786;28;20495;-71
2023/12/19 07:36:28;;;;;;;5.00;1.77;;;;;;;;;;5048584;28;20525;-72
2023/12/19 07:38:55;;;;;;;1.85;1.48;;;;;;;;;;5044829;28;20072;-72
2023/12/19 07:41:26;;;;;;;1.02;1.02;;;;;;;;;;5047896;28;20391;-71
2023/12/19 07:43:54;;;;;;;0.32;0.32;;;;;;;;;;5047471;28;20072;-71
2023/12/19 07:46:22;;;;;;;2.00;1.90;;;;;;;;;;5047632;28;20048;-71
2023/12/19 07:48:50;;;;;;;0.80;0.80;;;;;;;;;;5047201;28;20053;-71
2023/12/19 07:51:26;;;;;;;2.63;2.47;;;;;;;;;;5047230;28;20071;-72
2023/12/19 07:53:54;;;;;;;1.17;1.08;;;;;;;;;;5045944;28;20068;-72
2023/12/19 07:56:22;;;;;;;4.95;4.50;;;;;;;;;;5047139;28;20548;-71
2023/12/19 07:58:50;;;;;;;1.90;1.80;;;;;;;;;;5045071;28;20063;-71
2023/12/19 08:01:20;;;;;;;3.40;2.13;;;;;;;;;;5031996;28;20821;-71
2023/12/19 08:03:50;;;;;;;1.55;1.45;;;;;;;;;;5027361;28;20474;-71
2023/12/19 08:06:19;;;;;;;1.77;1.15;;;;;;;;;;5027542;28;20546;-72
2023/12/19 08:08:49;;;;;;;1.15;1.05;;;;;;;;;;5009923;28;20507;-72
2023/12/19 08:11:17;;;;;;;0.45;0.45;;;;;;;;;;5034734;28;20398;-72
2023/12/19 08:13:45;;;;;;;0.70;0.35;;;;;;;;;;5046632;28;20049;-72
2023/12/19 08:16:12;;;;;;;0.52;0.50;;;;;;;;;;5046728;28;20053;-72
2023/12/19 08:18:39;;;;;;;0.28;0.28;;;;;;;;;;5046002;28;20464;-72
2023/12/19 08:21:08;;;;;;;1.40;1.33;;;;;;;;;;5046623;28;20098;-72
2023/12/19 08:23:35;;;;;;;1.83;1.30;;;;;;;;;;5049457;28;20380;-71
2023/12/19 08:26:04;;;;;;;0.45;0.45;;;;;;;;;;5028086;28;20072;-72
2023/12/19 08:28:31;;;;;;;0.85;0.85;;;;;;;;;;5032884;28;20118;-72
2023/12/19 08:30:59;;;;;;;0.45;0.30;;;;;;;;;;5047930;28;20083;-72
2023/12/19 08:33:26;;;;;;;1.23;1.17;;;;;;;;;;5047506;28;20053;-72
2023/12/19 08:35:54;;;;;;;0.20;0.20;;;;;;;;;;5048298;28;20399;-71
2023/12/19 08:38:21;;;;;;;0.98;0.68;;;;;;;;;;5047577;28;20053;-72
2023/12/19 08:40:49;;;;;;;0.98;0.98;;;;;;;;;;5029496;28;20064;-72
2023/12/19 08:43:19;;;;;;;0.57;0.57;;;;;;;;;;5047633;28;20091;-72
2023/12/19 08:45:50;;;;;;;1.08;0.75;;;;;;;;;;5047285;28;20053;-72
2023/12/19 08:48:19;;;;;;;0.60;0.60;;;;;;;;;;5047195;28;20088;-72
2023/12/19 08:50:47;;;;;;;2.28;2.00;;;;;;;;;;5046380;28;20049;-72
2023/12/19 08:53:14;;;;;;;0.20;0.20;;;;;;;;;;5046262;28;20048;-72
2023/12/19 08:55:44;;;;;;;0.22;0.22;;;;;;;;;;5046438;28;20071;-74
2023/12/19 08:58:12;;;;;;;0.65;0.65;;;;;;;;;;5042849;28;20439;-74
2023/12/19 09:00:39;;;;;;;0.70;0.70;;;;;;;;;;5028702;28;20544;-72
2023/12/19 09:03:07;;;;;;;1.23;1.13;;;;;;;;;;5047409;28;20124;-71
2023/12/19 09:05:35;;;;;;;2.63;2.17;;;;;;;;;;5046126;28;20063;-71
2023/12/19 09:08:02;;;;;;;2.38;2.17;;;;;;;;;;5045259;28;20095;-72
2023/12/19 09:10:30;;;;;;;1.67;1.58;;;;;;;;;;5048012;28;20060;-72
2023/12/19 09:12:58;;;;;;;1.17;1.08;;;;;;;;;;5050085;28;20049;-71
2023/12/19 09:15:25;;;;;;;0.85;0.85;;;;;;;;;;5050734;28;20564;-72
2023/12/19 09:17:53;;;;;;;1.88;1.63;;;;;;;;;;5048316;28;20052;-73
2023/12/19 09:20:23;;;;;;;1.20;0.55;;;;;;;;;;5041112;28;20610;-74
2023/12/19 09:22:50;;;;;;;1.17;1.17;;;;;;;;;;5045732;28;20049;-73
2023/12/19 09:25:19;;;;;;;0.73;0.73;;;;;;;;;;5040214;28;20060;-73
2023/12/19 09:27:46;;;;;;;1.45;1.35;;;;;;;;;;5048890;28;20048;-70
2023/12/19 09:30:16;;;;;;;0.88;0.88;;;;;;;;;;5049321;28;20053;-70
2023/12/19 09:32:44;;;;;;;0.73;0.73;;;;;;;;;;5047518;28;20123;-70
2023/12/19 09:35:12;;;;;;;1.15;1.10;;;;;;;;;;5048290;28;20045;-71
2023/12/19 09:37:39;;;;;;;1.85;1.55;;;;;;;;;;5048967;28;20041;-71
2023/12/19 09:40:16;;;;;;;1.42;0.88;;;;;;;;;;5049079;28;20515;-71
2023/12/19 09:42:45;;;;;;;2.63;2.25;;;;;;;;;;5045387;28;20057;-71
2023/12/19 09:45:14;;;;;;;0.98;0.70;;;;;;;;;;5048800;28;20091;-71
2023/12/19 09:47:44;;;;;;;0.40;0.40;;;;;;;;;;5031221;28;20057;-71
2023/12/19 09:50:13;;;;;;;0.40;0.40;;;;;;;;;;5048385;28;20059;-71
2023/12/19 09:52:45;;;;;;;0.65;0.65;;;;;;;;;;5048986;28;20061;-70
2023/12/19 09:55:14;;;;;;;0.80;0.80;;;;;;;;;;5046404;28;20075;-70
2023/12/19 09:57:42;;;;;;;0.65;0.65;;;;;;;;;;5048274;28;20049;-70
2023/12/19 10:00:10;;;;;;;6.05;5.60;;;;;;;;;;5047738;28;20073;-70
2023/12/19 10:02:38;;;;;;;1.20;1.10;;;;;;;;;;5049184;28;20076;-70
2023/12/19 10:05:07;;;;;;;3.25;2.05;;;;;;;;;;5048580;28;20124;-70
2023/12/19 10:07:35;;;;;;;1.00;0.95;;;;;;;;;;5049171;28;20126;-70
2023/12/19 10:10:03;;;;;;;1.80;1.70;;;;;;;;;;5042060;28;20569;-70
2023/12/19 10:12:31;;;;;;;0.38;0.38;;;;;;;;;;5048497;28;20111;-72
2023/12/19 10:15:13;;;;;;;0.47;0.38;;;;;;;;;;5048942;28;20153;-71
2023/12/19 10:18:03;;;;;;;0.20;0.20;;;;;;;;;;5050063;28;20469;-70
2023/12/19 10:20:31;;;;;;;0.10;0.10;;;;;;;;;;5047308;28;20071;-71
2023/12/19 10:23:03;;;;;;;6.65;1.20;;;;;;;;;;5048384;28;20045;-72
2023/12/19 10:25:34;;;;;;;0.55;0.43;;;;;;;;;;5028147;28;20060;-71
2023/12/19 10:28:13;;;;;;;1.30;1.20;;;;;;;;;;5043310;28;20498;-73
2023/12/19 10:30:45;;;;;;;1.13;1.13;;;;;;;;;;5039876;28;20047;-74
2023/12/19 10:33:14;;;;;;;0.90;0.90;;;;;;;;;;5042596;28;20073;-74
2023/12/19 10:35:45;;;;;;;0.88;0.52;;;;;;;;;;5041078;28;20048;-74
2023/12/19 10:38:13;;;;;;;0.57;0.57;;;;;;;;;;5035372;28;20037;-74
2023/12/19 10:40:41;;;;;;;1.35;0.93;;;;;;;;;;5041161;28;20051;-70
2023/12/19 10:43:09;;;;;;;4.80;1.55;;;;;;;;;;5044419;28;20189;-71
2023/12/19 10:45:38;;;;;;;1.77;1.67;;;;;;;;;;5045541;28;20183;-71
2023/12/19 10:48:06;;;;;;;0.45;0.45;;;;;;;;;;5025020;28;20068;-70
2023/12/19 10:50:35;;;;;;;0.77;0.77;;;;;;;;;;5042995;28;20483;-71
2023/12/19 10:53:03;;;;;;;1.58;1.48;;;;;;;;;;5046194;28;20174;-71
2023/12/19 10:55:37;;;;;;;2.00;1.90;;;;;;;;;;5046645;28;20773;-71
2023/12/19 10:58:05;;;;;;;1.75;1.20;;;;;;;;;;5044231;28;20069;-71
2023/12/19 11:00:34;;;;;;;2.75;2.50;;;;;;;;;;5043184;28;20398;-71
2023/12/19 11:03:08;;;;;;;1.15;1.15;;;;;;;;;;5046489;28;20461;-71
2023/12/19 11:05:40;;;;;;;0.90;0.90;;;;;;;;;;5112191;22;20072;-77
2023/12/19 11:08:15;;;;;;;2.10;1.98;;;;;;;;;;5027484;28;20516;-79
2023/12/19 11:10:51;;;;;;;4.35;2.53;;;;;;;;;;5045798;28;20048;-78
2023/12/19 11:13:19;;;;;;;4.63;2.38;;;;;;;;;;5025108;28;20048;-78
2023/12/19 11:15:50;;;;;;;2.33;2.13;;;;;;;;;;5025472;28;20094;-79
2023/12/19 11:18:26;;;;;;;1.70;0.80;;;;;;;;;;5038765;28;20504;-79
2023/12/19 11:20:59;;;;;;;0.95;0.90;;;;;;;;;;5041105;28;20116;-78
2023/12/19 11:23:26;;;;;;;1.55;1.45;;;;;;;;;;5044287;28;20146;-79
2023/12/19 11:25:55;;;;;;;2.28;1.98;;;;;;;;;;5045644;28;20052;-81
2023/12/19 11:28:25;;;;;;;1.40;1.33;;;;;;;;;;5041634;28;20067;-78
2023/12/19 11:30:53;;;;;;;2.30;2.20;;;;;;;;;;5043286;28;20047;-80
2023/12/19 11:33:31;;;;;;;2.40;2.15;;;;;;;;;;5046904;28;20506;-79
2023/12/19 11:36:13;;;;;;;2.10;0.50;;;;;;;;;;5045779;28;20064;-80
2023/12/19 11:38:42;;;;;;;0.82;0.82;;;;;;;;;;5048082;28;20051;-80
2023/12/19 11:41:09;;;;;;;2.03;1.92;;;;;;;;;;5047950;28;20186;-79
2023/12/19 11:43:52;;;;;;;3.00;2.78;;;;;;;;;;5026886;28;20073;-80
2023/12/19 11:46:19;;;;;;;0.90;0.90;;;;;;;;;;5044893;28;20091;-78
2023/12/19 11:48:49;;;;;;;1.45;1.38;;;;;;;;;;5035224;28;20049;-81
2023/12/19 11:51:36;;;;;;;1.02;0.93;;;;;;;;;;5040410;28;20121;-79
2023/12/19 11:54:03;;;;;;;2.45;1.98;;;;;;;;;;5042497;28;20150;-77
2023/12/19 11:56:31;;;;;;;0.90;0.90;;;;;;;;;;5041736;28;20049;-76
2023/12/19 11:58:59;;;;;;;0.63;0.55;;;;;;;;;;5024425;28;20041;-78
2023/12/19 12:01:27;;;;;;;0.47;0.47;;;;;;;;;;5041775;28;20069;-78
2023/12/19 12:04:06;;;;;;;0.90;0.90;;;;;;;;;;5046015;28;20064;-77
2023/12/19 12:06:33;;;;;;;1.27;1.20;;;;;;;;;;5044426;28;20056;-79
2023/12/19 12:09:07;;;;;;;0.93;0.93;;;;;;;;;;5021445;28;20053;-79
2023/12/19 12:11:48;;;;;;;0.88;0.88;;;;;;;;;;5022050;28;20442;-80
2023/12/19 12:14:15;;;;;;;1.98;1.88;;;;;;;;;;5040208;28;20060;-79
2023/12/19 12:16:43;;;;;;;1.13;1.05;;;;;;;;;;5039330;28;20517;-78
2023/12/19 12:19:14;;;;;;;0.60;0.60;;;;;;;;;;5022919;28;20065;-78
2023/12/19 12:21:49;;;;;;;0.82;0.82;;;;;;;;;;5020568;28;20514;-79
2023/12/19 12:24:21;;;;;;;0.32;0.32;;;;;;;;;;5042164;28;20055;-80
2023/12/19 12:27:09;;;;;;;1.05;1.05;;;;;;;;;;5025493;28;20414;-80
2023/12/19 12:29:38;;;;;;;4.47;4.07;;;;;;;;;;5041746;28;20051;-77
2023/12/19 12:32:06;;;;;;;0.98;0.98;;;;;;;;;;5043037;28;20040;-84
2023/12/19 12:34:36;;;;;;;1.30;1.25;;;;;;;;;;5027278;28;20063;-80
2023/12/19 12:37:04;;;;;;;3.47;2.03;;;;;;;;;;5040834;28;20045;-84
2023/12/19 12:39:33;;;;;;;0.40;0.40;;;;;;;;;;5025580;28;20053;-78
2023/12/19 12:42:01;;;;;;;3.92;2.63;;;;;;;;;;5027730;28;20095;-78
2023/12/19 12:44:29;;;;;;;1.33;1.30;;;;;;;;;;5042908;28;20045;-80
2023/12/19 12:46:56;;;;;;;1.10;1.10;;;;;;;;;;5027149;28;20056;-78
2023/12/19 12:49:23;;;;;;;1.55;1.45;;;;;;;;;;5042305;28;20400;-79
2023/12/19 12:51:58;;;;;;;0.90;0.90;;;;;;;;;;5051679;28;20061;-79
2023/12/19 12:54:26;;;;;;;1.23;1.23;;;;;;;;;;5048071;28;20102;-81
2023/12/19 12:56:54;;;;;;;1.60;1.50;;;;;;;;;;5050448;28;20040;-79
2023/12/19 12:59:25;;;;;;;0.73;0.73;;;;;;;;;;5042968;28;20075;-83
2023/12/19 13:01:53;;;;;;;1.17;1.08;;;;;;;;;;5046549;28;20706;-80
2023/12/19 13:04:22;;;;;;;0.43;0.43;;;;;;;;;;5046645;28;20064;-80
2023/12/19 13:06:50;;;;;;;0.95;0.95;;;;;;;;;;5028661;28;20540;-80
2023/12/19 13:09:20;;;;;;;0.30;0.30;;;;;;;;;;5030612;28;20041;-80
2023/12/19 13:11:50;;;;;;;0.20;0.20;;;;;;;;;;5047701;28;20056;-79
2023/12/19 13:14:47;;;;;;;2.05;1.85;;;;;;;;;;5027376;28;22350;-79
2023/12/19 13:17:15;;;;;;;0.00;0.00;;;;;;;;;;5018619;28;20214;-83
2023/12/19 13:19:49;;;;;;;0.90;0.90;;;;;;;;;;5045843;28;20574;-79
2023/12/19 13:22:17;;;;;;;0.10;0.10;;;;;;;;;;5031925;28;20439;-80
2023/12/19 13:24:45;;;;;;;0.52;0.52;;;;;;;;;;5048180;28;20056;-78
2023/12/19 13:27:14;;;;;;;0.73;0.73;;;;;;;;;;5051054;28;20076;-79
2023/12/19 13:29:43;;;;;;;0.40;0.40;;;;;;;;;;5048690;28;20045;-79
2023/12/19 13:32:11;;;;;;;0.63;0.63;;;;;;;;;;5049814;28;20071;-80
2023/12/19 13:34:39;;;;;;;0.95;0.95;;;;;;;;;;5031138;28;20123;-80
2023/12/19 13:37:06;;;;;;;0.17;0.15;;;;;;;;;;5027650;28;20131;-80
2023/12/19 13:39:35;;;;;;;1.13;1.13;;;;;;;;;;5043830;28;20068;-83
2023/12/19 13:42:05;;;;;;;1.00;0.77;;;;;;;;;;5048826;28;20043;-83
2023/12/19 13:44:32;;;;;;;0.13;0.13;;;;;;;;;;5044496;28;20307;-82
2023/12/19 13:47:00;;;;;;;0.30;0.30;;;;;;;;;;5019781;28;20049;-79
2023/12/19 13:49:28;;;;;;;0.60;0.60;;;;;;;;;;5041908;28;20045;-80
2023/12/19 13:51:56;;;;;;;0.63;0.63;;;;;;;;;;5040854;28;20057;-79
2023/12/19 13:54:26;;;;;;;0.10;0.10;;;;;;;;;;5040088;28;20041;-79
2023/12/19 13:56:54;;;;;;;0.82;0.82;;;;;;;;;;5039671;28;20056;-78
2023/12/19 13:59:21;;;;;;;1.33;1.25;;;;;;;;;;5042873;28;20084;-78
2023/12/19 14:01:49;;;;;;;0.68;0.68;;;;;;;;;;5041534;28;20274;-79
2023/12/19 14:04:17;;;;;;;1.85;1.27;;;;;;;;;;5035739;28;20056;-78
2023/12/19 14:06:45;;;;;;;2.33;2.20;;;;;;;;;;5025188;28;20400;-78
2023/12/19 14:09:19;;;;;;;0.85;0.85;;;;;;;;;;5045639;28;20049;-79
2023/12/19 14:11:47;;;;;;;0.75;0.75;;;;;;;;;;5045445;28;20064;-79
2023/12/19 14:14:14;;;;;;;2.03;1.95;;;;;;;;;;5046927;28;20048;-80
2023/12/19 14:16:41;;;;;;;1.30;1.00;;;;;;;;;;5041217;28;20225;-79
2023/12/19 14:19:09;;;;;;;1.83;1.73;;;;;;;;;;5047437;28;20067;-78
2023/12/19 14:21:39;;;;;;;3.47;3.17;;;;;;;;;;5049637;28;20055;-82
2023/12/19 14:24:09;;;;;;;1.35;1.27;;;;;;;;;;5044236;28;20056;-85
2023/12/19 14:26:40;;;;;;;1.05;1.00;;;;;;;;;;5043655;28;20053;-79
2023/12/19 14:29:07;;;;;;;0.45;0.45;;;;;;;;;;5040033;28;20045;-81
2023/12/19 14:31:36;;;;;;;0.47;0.47;;;;;;;;;;5044376;28;20056;-80
2023/12/19 14:34:06;;;;;;;0.95;0.85;;;;;;;;;;5041740;28;20049;-79
2023/12/19 14:36:41;;;;;;;1.83;1.73;;;;;;;;;;5033338;28;20475;-84
2023/12/19 14:39:11;;;;;;;0.30;0.30;;;;;;;;;;5040254;28;20695;-77
2023/12/19 14:41:44;;;;;;;2.70;1.85;;;;;;;;;;5040673;28;20095;-79
2023/12/19 14:44:12;;;;;;;1.67;1.58;;;;;;;;;;5044355;28;20041;-77
2023/12/19 14:46:40;;;;;;;3.10;2.80;;;;;;;;;;5051932;28;20068;-81
2023/12/19 14:49:08;;;;;;;0.40;0.40;;;;;;;;;;5045529;28;20073;-79
2023/12/19 14:51:41;;;;;;;1.45;1.35;;;;;;;;;;5042588;28;20068;-79
2023/12/19 14:54:08;;;;;;;8.98;6.65;;;;;;;;;;5036383;28;20063;-80
2023/12/19 14:56:35;;;;;;;9.07;6.00;;;;;;;;;;5035370;28;20048;-79